sensor_id;sensor_type;location;lat;lon;timestamp;pressure;altitude;pressure_sealevel;temperature;humidity
13080;BME280;6606;49.154;9.280;2023-01-31T00:02:32;100576.41;;;3.72;100.00
13080;BME280;6606;49.154;9.280;2023-01-31T00:05:14;100567.69;;;3.68;100.00
13080;BME280;6606;49.154;9.280;2023-01-31T00:07:56;100571.22;;;3.66;100.00
13080;BME280;6606;49.154;9.280;2023-01-31T00:10:38;100563.41;;;3.57;100.00
13080;BME280;6606;49.154;9.280;2023-01-31T00:13:20;100554.75;;;3.47;100.00
13080;BME280;6606;49.154;9.280;2023-01-31T00:16:02;100553.03;;;3.38;100.00
13080;BME280;6606;49.154;9.280;2023-01-31T00:18:45;100551.44;;;3.14;100.00
13080;BME280;6606;49.154;9.280;2023-01-31T00:21:28;100552.31;;;3.15;100.00
13080;BME280;6606;49.154;9.280;2023-01-31T00:24:11;100552.38;;;3.10;100.00
13080;BME280;6606;49.154;9.280;2023-01-31T00:26:53;100557.63;;;3.07;100.00
13080;BME280;6606;49.154;9.280;2023-01-31T00:29:36;100556.75;;;3.03;100.00
13080;BME280;6606;49.154;9.280;2023-01-31T00:32:17;100568.13;;;2.99;100.00
13080;BME280;6606;49.154;9.280;2023-01-31T00:35:00;100573.34;;;3.01;100.00
13080;BME280;6606;49.154;9.280;2023-01-31T00:37:42;100558.50;;;3.01;100.00
13080;BME280;6606;49.154;9.280;2023-01-31T00:40:24;100550.56;;;3.17;100.00
13080;BME280;6606;49.154;9.280;2023-01-31T00:43:05;100565.41;;;3.21;100.00
13080;BME280;6606;49.154;9.280;2023-01-31T00:45:47;100561.00;;;3.24;100.00
13080;BME280;6606;49.154;9.280;2023-01-31T00:48:29;100572.41;;;3.16;100.00
13080;BME280;6606;49.154;9.280;2023-01-31T00:51:12;100575.03;;;3.11;100.00
13080;BME280;6606;49.154;9.280;2023-01-31T00:53:54;100570.69;;;3.10;100.00
13080;BME280;6606;49.154;9.280;2023-01-31T00:56:36;100572.44;;;3.06;100.00
13080;BME280;6606;49.154;9.280;2023-01-31T00:59:18;100571.59;;;3.04;100.00
13080;BME280;6606;49.154;9.280;2023-01-31T01:01:59;100572.44;;;3.06;100.00
13080;BME280;6606;49.154;9.280;2023-01-31T01:04:41;100566.34;;;3.07;100.00
13080;BME280;6606;49.154;9.280;2023-01-31T01:07:24;100570.75;;;2.98;100.00
13080;BME280;6606;49.154;9.280;2023-01-31T01:10:07;100576.00;;;2.99;100.00
13080;BME280;6606;49.154;9.280;2023-01-31T01:12:49;100577.72;;;2.99;100.00
13080;BME280;6606;49.154;9.280;2023-01-31T01:15:31;100576.88;;;2.95;100.00
13080;BME280;6606;49.154;9.280;2023-01-31T01:18:13;100582.97;;;2.97;100.00
13080;BME280;6606;49.154;9.280;2023-01-31T01:20:55;100576.88;;;2.94;100.00
13080;BME280;6606;49.154;9.280;2023-01-31T01:23:40;100574.25;;;2.95;100.00
13080;BME280;6606;49.154;9.280;2023-01-31T01:26:23;100585.56;;;3.00;100.00
13080;BME280;6606;49.154;9.280;2023-01-31T01:29:05;100576.84;;;3.01;100.00
13080;BME280;6606;49.154;9.280;2023-01-31T01:31:47;100581.16;;;3.08;100.00
13080;BME280;6606;49.154;9.280;2023-01-31T01:34:29;100581.19;;;3.10;100.00
13080;BME280;6606;49.154;9.280;2023-01-31T01:37:11;100583.78;;;3.13;100.00
13080;BME280;6606;49.154;9.280;2023-01-31T01:40:00;100580.25;;;3.17;100.00
13080;BME280;6606;49.154;9.280;2023-01-31T01:42:42;100594.25;;;3.13;100.00
13080;BME280;6606;49.154;9.280;2023-01-31T01:45:24;100591.59;;;3.15;100.00
13080;BME280;6606;49.154;9.280;2023-01-31T01:48:06;100601.25;;;3.11;100.00
13080;BME280;6606;49.154;9.280;2023-01-31T01:50:48;100596.84;;;3.15;100.00
13080;BME280;6606;49.154;9.280;2023-01-31T01:53:30;100598.63;;;3.09;100.00
13080;BME280;6606;49.154;9.280;2023-01-31T01:56:20;100597.72;;;3.14;100.00
13080;BME280;6606;49.154;9.280;2023-01-31T01:59:07;100590.78;;;3.08;100.00
13080;BME280;6606;49.154;9.280;2023-01-31T02:01:51;100584.69;;;3.04;100.00
13080;BME280;6606;49.154;9.280;2023-01-31T02:04:38;100589.03;;;3.04;100.00
13080;BME280;6606;49.154;9.280;2023-01-31T02:07:21;100598.63;;;3.06;100.00
13080;BME280;6606;49.154;9.280;2023-01-31T02:10:07;100598.63;;;3.09;100.00
13080;BME280;6606;49.154;9.280;2023-01-31T02:12:53;100597.78;;;3.06;100.00
13080;BME280;6606;49.154;9.280;2023-01-31T02:15:36;100595.19;;;3.04;100.00
13080;BME280;6606;49.154;9.280;2023-01-31T02:18:18;100593.44;;;3.00;100.00
13080;BME280;6606;49.154;9.280;2023-01-31T02:21:41;100596.94;;;2.99;100.00
13080;BME280;6606;49.154;9.280;2023-01-31T02:28:01;100605.66;;;2.95;100.00
13080;BME280;6606;49.154;9.280;2023-01-31T02:31:20;100603.88;;;3.03;100.00
13080;BME280;6606;49.154;9.280;2023-01-31T02:34:10;100609.13;;;3.03;100.00
13080;BME280;6606;49.154;9.280;2023-01-31T02:37:03;100614.34;;;3.06;100.00
13080;BME280;6606;49.154;9.280;2023-01-31T02:39:58;100611.72;;;3.08;100.00
13080;BME280;6606;49.154;9.280;2023-01-31T02:42:48;100617.00;;;3.02;100.00
13080;BME280;6606;49.154;9.280;2023-01-31T02:45:37;100619.59;;;3.03;100.00
13080;BME280;6606;49.154;9.280;2023-01-31T02:48:29;100615.22;;;3.10;100.00
13080;BME280;6606;49.154;9.280;2023-01-31T02:51:18;100620.44;;;3.13;100.00
13080;BME280;6606;49.154;9.280;2023-01-31T02:54:07;100612.56;;;3.12;100.00
13080;BME280;6606;49.154;9.280;2023-01-31T02:56:51;100609.13;;;3.03;100.00
13080;BME280;6606;49.154;9.280;2023-01-31T02:59:33;100610.00;;;3.05;100.00
13080;BME280;6606;49.154;9.280;2023-01-31T03:02:15;100623.03;;;3.15;100.00
13080;BME280;6606;49.154;9.280;2023-01-31T03:04:57;100617.81;;;3.12;100.00
13080;BME280;6606;49.154;9.280;2023-01-31T03:07:42;100608.22;;;3.09;100.00
13080;BME280;6606;49.154;9.280;2023-01-31T03:10:34;100615.22;;;3.04;100.00
13080;BME280;6606;49.154;9.280;2023-01-31T03:13:32;100616.97;;;3.13;100.00
13080;BME280;6606;49.154;9.280;2023-01-31T03:16:23;100616.97;;;3.03;100.00
13080;BME280;6606;49.154;9.280;2023-01-31T03:19:27;100617.84;;;3.08;100.00
13080;BME280;6606;49.154;9.280;2023-01-31T03:22:14;100619.63;;;3.00;100.00
13080;BME280;6606;49.154;9.280;2023-01-31T03:25:01;100618.75;;;3.03;100.00
13080;BME280;6606;49.154;9.280;2023-01-31T03:27:49;100624.84;;;3.03;100.00
13080;BME280;6606;49.154;9.280;2023-01-31T03:30:39;100630.13;;;2.88;100.00
13080;BME280;6606;49.154;9.280;2023-01-31T03:33:25;100626.66;;;2.86;100.00
13080;BME280;6606;49.154;9.280;2023-01-31T03:36:15;100628.44;;;2.81;100.00
13080;BME280;6606;49.154;9.280;2023-01-31T03:39:10;100626.69;;;2.77;100.00
13080;BME280;6606;49.154;9.280;2023-01-31T03:41:58;100619.75;;;2.63;100.00
13080;BME280;6606;49.154;9.280;2023-01-31T03:44:52;100623.25;;;2.56;100.00
13080;BME280;6606;49.154;9.280;2023-01-31T03:47:38;100632.84;;;2.48;100.00
13080;BME280;6606;49.154;9.280;2023-01-31T03:50:25;100638.94;;;2.53;100.00
13080;BME280;6606;49.154;9.280;2023-01-31T03:53:10;100643.31;;;2.65;100.00
13080;BME280;6606;49.154;9.280;2023-01-31T03:55:57;100650.28;;;2.55;100.00
13080;BME280;6606;49.154;9.280;2023-01-31T03:58:47;100650.28;;;2.51;100.00
13080;BME280;6606;49.154;9.280;2023-01-31T04:01:33;100657.28;;;2.50;100.00
13080;BME280;6606;49.154;9.280;2023-01-31T04:04:20;100652.91;;;2.52;100.00
13080;BME280;6606;49.154;9.280;2023-01-31T04:07:04;100654.66;;;2.53;100.00
13080;BME280;6606;49.154;9.280;2023-01-31T04:09:46;100652.91;;;2.55;100.00
13080;BME280;6606;49.154;9.280;2023-01-31T04:12:28;100662.53;;;2.52;100.00
13080;BME280;6606;49.154;9.280;2023-01-31T04:15:11;100659.88;;;2.53;100.00
13080;BME280;6606;49.154;9.280;2023-01-31T04:17:53;100666.00;;;2.55;100.00
13080;BME280;6606;49.154;9.280;2023-01-31T04:20:35;100669.47;;;2.63;100.00
13080;BME280;6606;49.154;9.280;2023-01-31T04:23:16;100666.84;;;2.63;100.00
13080;BME280;6606;49.154;9.280;2023-01-31T04:25:58;100676.41;;;2.80;100.00
13080;BME280;6606;49.154;9.280;2023-01-31T04:28:40;100673.81;;;2.77;100.00
13080;BME280;6606;49.154;9.280;2023-01-31T04:31:23;100665.09;;;2.70;100.00
13080;BME280;6606;49.154;9.280;2023-01-31T04:34:05;100666.84;;;2.73;100.00
13080;BME280;6606;49.154;9.280;2023-01-31T04:36:47;100664.25;;;2.57;100.00
13080;BME280;6606;49.154;9.280;2023-01-31T04:39:28;100666.84;;;2.51;100.00
13080;BME280;6606;49.154;9.280;2023-01-31T04:42:10;100659.03;;;2.39;100.00
13080;BME280;6606;49.154;9.280;2023-01-31T04:44:52;100661.63;;;2.51;100.00
13080;BME280;6606;49.154;9.280;2023-01-31T04:47:35;100653.81;;;2.39;100.00
13080;BME280;6606;49.154;9.280;2023-01-31T04:50:16;100661.63;;;2.33;100.00
13080;BME280;6606;49.154;9.280;2023-01-31T04:52:58;100666.91;;;2.36;100.00
13080;BME280;6606;49.154;9.280;2023-01-31T04:55:40;100650.31;;;2.35;100.00
13080;BME280;6606;49.154;9.280;2023-01-31T04:58:22;100655.56;;;2.23;100.00
13080;BME280;6606;49.154;9.280;2023-01-31T05:01:03;100652.06;;;2.29;100.00
13080;BME280;6606;49.154;9.280;2023-01-31T05:03:48;100652.94;;;2.23;100.00
13080;BME280;6606;49.154;9.280;2023-01-31T05:06:29;100652.94;;;2.18;100.00
13080;BME280;6606;49.154;9.280;2023-01-31T05:09:11;100645.09;;;2.15;100.00
13080;BME280;6606;49.154;9.280;2023-01-31T05:11:53;100652.06;;;2.13;100.00
13080;BME280;6606;49.154;9.280;2023-01-31T05:14:34;100654.69;;;2.07;100.00
13080;BME280;6606;49.154;9.280;2023-01-31T05:17:16;100647.72;;;2.00;100.00
13080;BME280;6606;49.154;9.280;2023-01-31T05:20:08;100642.47;;;1.97;100.00
13080;BME280;6606;49.154;9.280;2023-01-31T05:22:50;100635.50;;;1.87;100.00
13080;BME280;6606;49.154;9.280;2023-01-31T05:25:32;100625.91;;;1.84;100.00
13080;BME280;6606;49.154;9.280;2023-01-31T05:28:14;100638.09;;;1.79;100.00
13080;BME280;6606;49.154;9.280;2023-01-31T05:31:01;100633.75;;;1.80;100.00
13080;BME280;6606;49.154;9.280;2023-01-31T05:33:43;100640.72;;;1.68;100.00
13080;BME280;6606;49.154;9.280;2023-01-31T05:36:27;100645.94;;;1.68;100.00
13080;BME280;6606;49.154;9.280;2023-01-31T05:39:09;100652.88;;;1.63;100.00
13080;BME280;6606;49.154;9.280;2023-01-31T05:41:50;100653.78;;;1.59;100.00
13080;BME280;6606;49.154;9.280;2023-01-31T05:44:33;100653.72;;;1.56;100.00
13080;BME280;6606;49.154;9.280;2023-01-31T05:47:15;100655.50;;;1.57;100.00
13080;BME280;6606;49.154;9.280;2023-01-31T05:49:56;100651.13;;;1.56;100.00
13080;BME280;6606;49.154;9.280;2023-01-31T05:52:41;100653.78;;;1.59;100.00
13080;BME280;6606;49.154;9.280;2023-01-31T05:55:22;100652.88;;;1.52;100.00
13080;BME280;6606;49.154;9.280;2023-01-31T05:58:04;100649.38;;;1.55;100.00
13080;BME280;6606;49.154;9.280;2023-01-31T06:00:46;100650.25;;;1.52;100.00
13080;BME280;6606;49.154;9.280;2023-01-31T06:03:28;100656.34;;;1.56;100.00
13080;BME280;6606;49.154;9.280;2023-01-31T06:06:09;100655.50;;;1.57;100.00
13080;BME280;6606;49.154;9.280;2023-01-31T06:08:52;100655.50;;;1.54;100.00
13080;BME280;6606;49.154;9.280;2023-01-31T06:11:34;100660.72;;;1.52;100.00
13080;BME280;6606;49.154;9.280;2023-01-31T06:14:16;100661.59;;;1.54;100.00
13080;BME280;6606;49.154;9.280;2023-01-31T06:16:57;100674.66;;;1.58;100.00
13080;BME280;6606;49.154;9.280;2023-01-31T06:19:39;100663.31;;;1.56;100.00
13080;BME280;6606;49.154;9.280;2023-01-31T06:22:21;100668.56;;;1.57;100.00
13080;BME280;6606;49.154;9.280;2023-01-31T06:25:05;100672.91;;;1.55;100.00
13080;BME280;6606;49.154;9.280;2023-01-31T06:27:47;100673.78;;;1.56;100.00
13080;BME280;6606;49.154;9.280;2023-01-31T06:30:28;100679.00;;;1.51;100.00
13080;BME280;6606;49.154;9.280;2023-01-31T06:33:11;100679.88;;;1.51;100.00
13080;BME280;6606;49.154;9.280;2023-01-31T06:35:57;100685.97;;;1.46;100.00
13080;BME280;6606;49.154;9.280;2023-01-31T06:38:39;100678.09;;;1.47;100.00
13080;BME280;6606;49.154;9.280;2023-01-31T06:41:22;100674.63;;;1.44;100.00
13080;BME280;6606;49.154;9.280;2023-01-31T06:44:04;100678.09;;;1.44;100.00
13080;BME280;6606;49.154;9.280;2023-01-31T06:46:46;100671.13;;;1.42;100.00
13080;BME280;6606;49.154;9.280;2023-01-31T06:49:28;100677.22;;;1.41;100.00
13080;BME280;6606;49.154;9.280;2023-01-31T06:52:09;100684.19;;;1.48;100.00
13080;BME280;6606;49.154;9.280;2023-01-31T06:54:51;100696.41;;;1.46;100.00
13080;BME280;6606;49.154;9.280;2023-01-31T06:57:34;100692.94;;;1.51;100.00
13080;BME280;6606;49.154;9.280;2023-01-31T07:00:17;100691.22;;;1.57;100.00
13080;BME280;6606;49.154;9.280;2023-01-31T07:02:59;100692.94;;;1.58;100.00
13080;BME280;6606;49.154;9.280;2023-01-31T07:05:40;100696.44;;;1.69;100.00
13080;BME280;6606;49.154;9.280;2023-01-31T07:08:23;100684.25;;;1.66;100.00
13080;BME280;6606;49.154;9.280;2023-01-31T07:11:05;100692.97;;;1.67;100.00
13080;BME280;6606;49.154;9.280;2023-01-31T07:13:48;100694.72;;;1.69;100.00
13080;BME280;6606;49.154;9.280;2023-01-31T07:16:29;100703.44;;;1.70;100.00
13080;BME280;6606;49.154;9.280;2023-01-31T07:19:11;100694.75;;;1.79;100.00
13080;BME280;6606;49.154;9.280;2023-01-31T07:21:53;100693.88;;;1.81;100.00
13080;BME280;6606;49.154;9.280;2023-01-31T07:24:35;100700.84;;;1.82;100.00
13080;BME280;6606;49.154;9.280;2023-01-31T07:27:17;100691.28;;;2.01;100.00
13080;BME280;6606;49.154;9.280;2023-01-31T07:30:00;100700.00;;;2.25;100.00
13080;BME280;6606;49.154;9.280;2023-01-31T07:32:41;100704.38;;;2.47;100.00
13080;BME280;6606;49.154;9.280;2023-01-31T07:35:23;100703.50;;;2.60;100.00
13080;BME280;6606;49.154;9.280;2023-01-31T07:38:05;100708.72;;;2.67;100.00
13080;BME280;6606;49.154;9.280;2023-01-31T07:40:46;100704.38;;;2.70;100.00
13080;BME280;6606;49.154;9.280;2023-01-31T07:43:28;100702.59;;;2.72;100.00
13080;BME280;6606;49.154;9.280;2023-01-31T07:46:12;100703.47;;;2.70;100.00
13080;BME280;6606;49.154;9.280;2023-01-31T07:48:53;100722.66;;;2.81;100.00
13080;BME280;6606;49.154;9.280;2023-01-31T07:51:35;100716.53;;;2.97;100.00
13080;BME280;6606;49.154;9.280;2023-01-31T07:54:18;100717.38;;;3.05;100.00
13080;BME280;6606;49.154;9.280;2023-01-31T07:56:59;100717.31;;;3.27;100.00
13080;BME280;6606;49.154;9.280;2023-01-31T07:59:41;100722.56;;;3.15;100.00
13080;BME280;6606;49.154;9.280;2023-01-31T08:02:25;100727.81;;;3.16;100.00
13080;BME280;6606;49.154;9.280;2023-01-31T08:05:24;100730.41;;;3.24;100.00
13080;BME280;6606;49.154;9.280;2023-01-31T08:08:06;100737.34;;;3.42;100.00
13080;BME280;6606;49.154;9.280;2023-01-31T08:10:51;100739.94;;;3.46;100.00
13080;BME280;6606;49.154;9.280;2023-01-31T08:13:32;100739.06;;;3.41;100.00
13080;BME280;6606;49.154;9.280;2023-01-31T08:16:14;100743.47;;;3.33;100.00
13080;BME280;6606;49.154;9.280;2023-01-31T08:18:58;100739.13;;;3.30;100.00
13080;BME280;6606;49.154;9.280;2023-01-31T08:21:39;100738.28;;;3.21;100.00
13080;BME280;6606;49.154;9.280;2023-01-31T08:24:21;100753.97;;;3.36;100.00
13080;BME280;6606;49.154;9.280;2023-01-31T08:27:03;100751.44;;;3.02;100.00
13080;BME280;6606;49.154;9.280;2023-01-31T08:29:44;100743.56;;;3.01;100.00
13080;BME280;6606;49.154;9.280;2023-01-31T08:32:26;100739.22;;;3.04;100.00
13080;BME280;6606;49.154;9.280;2023-01-31T08:35:09;100732.19;;;3.19;100.00
13080;BME280;6606;49.154;9.280;2023-01-31T08:37:51;100730.38;;;3.30;100.00
13080;BME280;6606;49.154;9.280;2023-01-31T08:40:33;100727.75;;;3.39;100.00
13080;BME280;6606;49.154;9.280;2023-01-31T08:43:15;100735.59;;;3.38;100.00
13080;BME280;6606;49.154;9.280;2023-01-31T08:45:56;100728.59;;;3.44;100.00
13080;BME280;6606;49.154;9.280;2023-01-31T08:48:38;100732.97;;;3.45;100.00
13080;BME280;6606;49.154;9.280;2023-01-31T08:51:22;100733.84;;;3.43;100.00
13080;BME280;6606;49.154;9.280;2023-01-31T08:54:04;100725.88;;;3.64;100.00
13080;BME280;6606;49.154;9.280;2023-01-31T08:56:45;100734.59;;;3.71;100.00
13080;BME280;6606;49.154;9.280;2023-01-31T08:59:27;100730.84;;;4.12;100.00
13080;BME280;6606;49.154;9.280;2023-01-31T09:02:09;100728.16;;;4.21;100.00
13080;BME280;6606;49.154;9.280;2023-01-31T09:04:51;100726.06;;;4.65;100.00
13080;BME280;6606;49.154;9.280;2023-01-31T09:07:34;100735.63;;;4.70;100.00
13080;BME280;6606;49.154;9.280;2023-01-31T09:10:16;100738.47;;;4.46;100.00
13080;BME280;6606;49.154;9.280;2023-01-31T09:12:58;100732.34;;;4.45;100.00
13080;BME280;6606;49.154;9.280;2023-01-31T09:15:40;100711.44;;;4.34;100.00
13080;BME280;6606;49.154;9.280;2023-01-31T09:18:22;100718.19;;;4.66;100.00
13080;BME280;6606;49.154;9.280;2023-01-31T09:21:04;100703.47;;;4.48;100.00
13080;BME280;6606;49.154;9.280;2023-01-31T09:23:53;100711.41;;;4.37;100.00
13080;BME280;6606;49.154;9.280;2023-01-31T09:26:35;100713.34;;;4.15;100.00
13080;BME280;6606;49.154;9.280;2023-01-31T09:29:17;100720.38;;;4.09;100.00
13080;BME280;6606;49.154;9.280;2023-01-31T09:31:59;100722.88;;;4.29;100.00
13080;BME280;6606;49.154;9.280;2023-01-31T09:34:41;100727.34;;;4.10;100.00
13080;BME280;6606;49.154;9.280;2023-01-31T09:37:22;100717.75;;;4.09;100.00
13080;BME280;6606;49.154;9.280;2023-01-31T09:40:06;100720.31;;;4.15;100.00
13080;BME280;6606;49.154;9.280;2023-01-31T09:42:49;100718.38;;;4.41;100.00
13080;BME280;6606;49.154;9.280;2023-01-31T09:45:34;100710.50;;;4.41;100.00
13080;BME280;6606;49.154;9.280;2023-01-31T09:48:20;100733.13;;;4.58;100.00
13080;BME280;6606;49.154;9.280;2023-01-31T09:51:04;100727.91;;;4.53;100.00
13080;BME280;6606;49.154;9.280;2023-01-31T09:53:46;100728.69;;;4.66;100.00
13080;BME280;6606;49.154;9.280;2023-01-31T09:56:34;100720.78;;;4.69;100.00
13080;BME280;6606;49.154;9.280;2023-01-31T09:59:21;100716.22;;;4.90;100.00
13080;BME280;6606;49.154;9.280;2023-01-31T10:02:14;100709.13;;;4.95;100.00
13080;BME280;6606;49.154;9.280;2023-01-31T10:05:05;100708.50;;;4.70;100.00
13080;BME280;6606;49.154;9.280;2023-01-31T10:07:59;100686.41;;;4.91;100.00
13080;BME280;6606;49.154;9.280;2023-01-31T10:10:47;100695.72;;;5.19;100.00
13080;BME280;6606;49.154;9.280;2023-01-31T10:13:34;100705.50;;;5.05;100.00
13080;BME280;6606;49.154;9.280;2023-01-31T10:16:21;100700.25;;;5.05;100.00
13080;BME280;6606;49.154;9.280;2023-01-31T10:19:10;100700.59;;;5.50;100.00
13080;BME280;6606;49.154;9.280;2023-01-31T10:21:55;100704.03;;;5.55;100.00
13080;BME280;6606;49.154;9.280;2023-01-31T10:24:43;100707.41;;;5.66;100.00
13080;BME280;6606;49.154;9.280;2023-01-31T10:27:37;100708.09;;;5.10;100.00
13080;BME280;6606;49.154;9.280;2023-01-31T10:30:25;100710.63;;;5.17;100.00
13080;BME280;6606;49.154;9.280;2023-01-31T10:33:19;100706.94;;;5.34;100.00
13080;BME280;6606;49.154;9.280;2023-01-31T10:36:09;100725.34;;;5.34;100.00
13080;BME280;6606;49.154;9.280;2023-01-31T10:38:57;100723.00;;;5.09;100.00
13080;BME280;6606;49.154;9.280;2023-01-31T10:41:46;100717.63;;;5.21;100.00
13080;BME280;6606;49.154;9.280;2023-01-31T10:44:42;100708.81;;;5.22;100.00
13080;BME280;6606;49.154;9.280;2023-01-31T10:47:31;100712.53;;;5.04;100.00
13080;BME280;6606;49.154;9.280;2023-01-31T10:50:16;100721.38;;;4.96;100.00
13080;BME280;6606;49.154;9.280;2023-01-31T10:53:07;100698.59;;;4.95;100.00
13080;BME280;6606;49.154;9.280;2023-01-31T10:56:03;100697.66;;;5.02;100.00
13080;BME280;6606;49.154;9.280;2023-01-31T10:58:45;100684.28;;;5.23;100.00
13080;BME280;6606;49.154;9.280;2023-01-31T11:01:28;100678.97;;;5.26;100.00
13080;BME280;6606;49.154;9.280;2023-01-31T11:04:23;100678.28;;;5.11;100.00
13080;BME280;6606;49.154;9.280;2023-01-31T11:07:06;100669.63;;;5.02;100.00
13080;BME280;6606;49.154;9.280;2023-01-31T11:09:50;100677.59;;;4.95;100.00
13080;BME280;6606;49.154;9.280;2023-01-31T11:12:41;100677.59;;;4.95;100.00
13080;BME280;6606;49.154;9.280;2023-01-31T11:15:25;100657.59;;;4.84;100.00
13080;BME280;6606;49.154;9.280;2023-01-31T11:18:10;100632.06;;;4.94;100.00
13080;BME280;6606;49.154;9.280;2023-01-31T11:20:58;100639.00;;;5.03;100.00
13080;BME280;6606;49.154;9.280;2023-01-31T11:23:42;100640.59;;;5.13;100.00
13080;BME280;6606;49.154;9.280;2023-01-31T11:26:29;100629.41;;;4.99;100.00
13080;BME280;6606;49.154;9.280;2023-01-31T11:29:17;100628.16;;;5.27;100.00
13080;BME280;6606;49.154;9.280;2023-01-31T11:32:05;100643.75;;;5.40;100.00
13080;BME280;6606;49.154;9.280;2023-01-31T11:34:57;100627.91;;;5.46;100.00
13080;BME280;6606;49.154;9.280;2023-01-31T11:37:49;100632.81;;;5.70;100.00
13080;BME280;6606;49.154;9.280;2023-01-31T11:40:32;100643.22;;;5.80;100.00
13080;BME280;6606;49.154;9.280;2023-01-31T11:43:23;100628.84;;;5.42;100.00
13080;BME280;6606;49.154;9.280;2023-01-31T11:46:06;100617.09;;;5.67;100.00
13080;BME280;6606;49.154;9.280;2023-01-31T11:48:48;100613.31;;;5.84;100.00
13080;BME280;6606;49.154;9.280;2023-01-31T11:51:30;100607.00;;;5.97;100.00
13080;BME280;6606;49.154;9.280;2023-01-31T11:54:17;100590.69;;;5.73;100.00
13080;BME280;6606;49.154;9.280;2023-01-31T11:57:00;100571.94;;;5.98;100.00
13080;BME280;6606;49.154;9.280;2023-01-31T11:59:42;100569.28;;;5.98;100.00
13080;BME280;6606;49.154;9.280;2023-01-31T12:02:29;100563.75;;;6.13;100.00
13080;BME280;6606;49.154;9.280;2023-01-31T12:05:14;100556.56;;;6.22;100.00
13080;BME280;6606;49.154;9.280;2023-01-31T12:07:56;100564.03;;;6.46;100.00
13080;BME280;6606;49.154;9.280;2023-01-31T12:10:42;100561.50;;;6.40;100.00
13080;BME280;6606;49.154;9.280;2023-01-31T12:13:26;100548.25;;;6.45;100.00
13080;BME280;6606;49.154;9.280;2023-01-31T12:16:10;100554.06;;;6.62;100.00
13080;BME280;6606;49.154;9.280;2023-01-31T12:19:02;100541.56;;;6.72;100.00
13080;BME280;6606;49.154;9.280;2023-01-31T12:21:53;100549.03;;;6.51;100.00
13080;BME280;6606;49.154;9.280;2023-01-31T12:24:43;100556.66;;;6.65;100.00
13080;BME280;6606;49.154;9.280;2023-01-31T12:27:38;100544.34;;;6.64;100.00
13080;BME280;6606;49.154;9.280;2023-01-31T12:30:32;100533.50;;;6.79;100.00
13080;BME280;6606;49.154;9.280;2023-01-31T12:33:28;100522.91;;;6.39;100.00
13080;BME280;6606;49.154;9.280;2023-01-31T12:36:26;100515.16;;;6.33;100.00
13080;BME280;6606;49.154;9.280;2023-01-31T12:39:31;100521.13;;;6.41;100.00
13080;BME280;6606;49.154;9.280;2023-01-31T12:42:28;100530.81;;;6.37;100.00
13080;BME280;6606;49.154;9.280;2023-01-31T12:45:24;100522.41;;;6.19;100.00
13080;BME280;6606;49.154;9.280;2023-01-31T12:48:24;100512.94;;;6.08;100.00
13080;BME280;6606;49.154;9.280;2023-01-31T12:51:20;100519.84;;;6.15;100.00
13080;BME280;6606;49.154;9.280;2023-01-31T12:54:11;100513.84;;;6.09;100.00
13080;BME280;6606;49.154;9.280;2023-01-31T12:57:14;100504.84;;;6.19;100.00
13080;BME280;6606;49.154;9.280;2023-01-31T13:00:10;100504.97;;;6.13;100.00
13080;BME280;6606;49.154;9.280;2023-01-31T13:03:27;100496.41;;;6.02;100.00
13080;BME280;6606;49.154;9.280;2023-01-31T13:06:13;100480.75;;;5.92;100.00
13080;BME280;6606;49.154;9.280;2023-01-31T13:09:00;100482.41;;;6.01;100.00
13080;BME280;6606;49.154;9.280;2023-01-31T13:11:47;100490.28;;;6.01;100.00
13080;BME280;6606;49.154;9.280;2023-01-31T13:14:33;100490.22;;;6.04;100.00
13080;BME280;6606;49.154;9.280;2023-01-31T13:17:19;100494.72;;;5.98;100.00
13080;BME280;6606;49.154;9.280;2023-01-31T13:20:18;100494.09;;;5.82;100.00
13080;BME280;6606;49.154;9.280;2023-01-31T13:23:05;100516.84;;;5.86;100.00
13080;BME280;6606;49.154;9.280;2023-01-31T13:25:53;100508.97;;;5.84;100.00
13080;BME280;6606;49.154;9.280;2023-01-31T13:28:42;100495.06;;;5.78;100.00
13080;BME280;6606;49.154;9.280;2023-01-31T13:31:27;100503.75;;;5.81;100.00
13080;BME280;6606;49.154;9.280;2023-01-31T13:34:14;100495.00;;;5.79;100.00
13080;BME280;6606;49.154;9.280;2023-01-31T13:37:00;100475.66;;;5.85;100.00
13080;BME280;6606;49.154;9.280;2023-01-31T13:39:46;100479.09;;;5.88;100.00
13080;BME280;6606;49.154;9.280;2023-01-31T13:42:29;100469.50;;;5.86;100.00
13080;BME280;6606;49.154;9.280;2023-01-31T13:45:21;100461.59;;;5.86;100.00
13080;BME280;6606;49.154;9.280;2023-01-31T13:48:05;100455.19;;;6.02;100.00
13080;BME280;6606;49.154;9.280;2023-01-31T13:50:52;100446.34;;;6.06;100.00
13080;BME280;6606;49.154;9.280;2023-01-31T13:53:42;100444.66;;;6.02;100.00
13080;BME280;6606;49.154;9.280;2023-01-31T13:56:28;100445.69;;;5.93;100.00
13080;BME280;6606;49.154;9.280;2023-01-31T13:59:19;100441.34;;;5.91;100.00
13080;BME280;6606;49.154;9.280;2023-01-31T14:02:04;100431.72;;;5.88;100.00
13080;BME280;6606;49.154;9.280;2023-01-31T14:04:47;100415.84;;;5.96;100.00
13080;BME280;6606;49.154;9.280;2023-01-31T14:07:29;100408.81;;;5.95;100.00
13080;BME280;6606;49.154;9.280;2023-01-31T14:10:36;100403.34;;;6.06;100.00
13080;BME280;6606;49.154;9.280;2023-01-31T14:13:40;100389.88;;;6.23;100.00
13080;BME280;6606;49.154;9.280;2023-01-31T14:16:39;100408.16;;;6.29;100.00
13080;BME280;6606;49.154;9.280;2023-01-31T14:26:31;100440.50;;;5.87;100.00
13080;BME280;6606;49.154;9.280;2023-01-31T14:29:17;100434.38;;;5.87;100.00
13080;BME280;6606;49.154;9.280;2023-01-31T14:32:12;100419.44;;;5.90;100.00
13080;BME280;6606;49.154;9.280;2023-01-31T14:34:55;100412.53;;;5.85;100.00
13080;BME280;6606;49.154;9.280;2023-01-31T14:37:41;100408.41;;;5.68;100.00
13080;BME280;6606;49.154;9.280;2023-01-31T14:40:28;100428.34;;;5.82;100.00
13080;BME280;6606;49.154;9.280;2023-01-31T14:43:33;100423.72;;;5.96;100.00
13080;BME280;6606;49.154;9.280;2023-01-31T14:46:39;100423.22;;;5.74;100.00
13080;BME280;6606;49.154;9.280;2023-01-31T14:49:46;100414.50;;;5.72;100.00